Airfield :
LOGIN :

Register | Disclaimer

   EN    FR    IT 

 










Legend :    VFR   Marginal VFR   IFR   Intensive IFR   Very Intensive IFR
Visi :
Ceiling :
>= 8 km
>= 3000ft
5 to 8 km
1000 to 3000 ft
1500m to 5 km
500 to 1000 ft
800 to 1500m
200 to 500 ft
< 800m
< 200 ft
Symbols :   Thunderstorms  Fog  Heavy snow  Heavy precipitations  Wind > 20 kt
SIGMETs :     Misc.  Thunderstorms  Icing  Turbulence  Mountain Waves  Volcanic Ashes






- Airport Elevation : 405 ft
- IATA code : ODH


EGVO - RAF Odiham

CURRENT METAR :
  • 271621Z 29016KT CAVOK 07/M02 Q1007 NOSIG RMK BLU BLU

EXPIRED METARs :
  • 271550Z 30019G29KT 9999 FEW045 07/M02 Q1006 NOSIG RMK BLU BLU
  • 271523Z 31014KT 9999 FEW045 07/M01 Q1006 NOSIG RMK BLU BLU
  • 271450Z 30020KT 9999 FEW040 07/M01 Q1005 NOSIG RMK BLU BLU
  • 271421Z 31017G27KT 9999 SCT040 07/M00 Q1004 NOSIG RMK BLU BLU
  • 271350Z 32018KT 9999 SCT035 07/00 Q1003 NOSIG RMK BLU BLU

TAF TAF EGVO
Valid from the 27 at 15:00 until the 28 at 03:00 UTC


271343Z 2715/2803 32016G26KT 9999 FEW030
BECMG 2716/2719 29010KT



MET'MAP, your aeronautical weather chart ! - Copyright ORBIFLY December 2007 - Disclaimer

ORBIFLY MET'MAP TEAM :

Programming & Development : Alexandra Zaïnal
Concept & original design : Baudouin d'Aumeries
Assistance for programming : Marc-Olivier Méhu
Technical & hardware support : Manuel Goepfert

Contact : metmap@orbifly.com




SOURCES & CREDITS :

   NOAA